Shipshewana, Indiana
Current Conditions -  °F | °C
As of 3:55 PM on Friday 31 Oct 2014 (Local Time) from KIRS Reporting Station
Unknown Precip Unknown Precip  
Wind Chill: -4°   Ceiling: 1500
Heat Index:   Visibility: 4mi
Dew Point:   Wind: 17mph
Humidity: 93%   Direction: 360°N
Pressure: 29.99"   Gusts: 25mph
Location:  41.67°N, 85.58°W
Report Text: KIRS 311955Z AUTO 36015G22KT 4SM UP SCT009 BKN015 OVC022 02/01 A2999 RMK AO2
Loading
Personal Weather Stations






























Interactive Weather Map
Tropical Storm Tracking
New forecast layout! Learn more

10-Day Weather Forecast

Advertisements
Track Severe Weather on mobile